sensor_id;sensor_type;location;lat;lon;timestamp;temperature;humidity
3986;DHT22;2007;48.750;9.278;2023-12-29T00:01:17;15.50;56.00
3986;DHT22;2007;48.750;9.278;2023-12-29T00:03:45;15.50;56.00
3986;DHT22;2007;48.750;9.278;2023-12-29T00:06:13;15.50;56.00
3986;DHT22;2007;48.750;9.278;2023-12-29T00:08:41;15.50;55.90
3986;DHT22;2007;48.750;9.278;2023-12-29T00:11:17;15.50;56.00
3986;DHT22;2007;48.750;9.278;2023-12-29T00:13:46;15.50;56.00
3986;DHT22;2007;48.750;9.278;2023-12-29T00:16:14;15.50;56.00
3986;DHT22;2007;48.750;9.278;2023-12-29T00:18:43;15.50;56.00
3986;DHT22;2007;48.750;9.278;2023-12-29T00:21:11;15.50;56.00
3986;DHT22;2007;48.750;9.278;2023-12-29T00:23:38;15.50;56.00
3986;DHT22;2007;48.750;9.278;2023-12-29T00:26:06;15.50;56.00
3986;DHT22;2007;48.750;9.278;2023-12-29T00:28:36;15.60;56.00
3986;DHT22;2007;48.750;9.278;2023-12-29T00:31:07;15.60;56.10
3986;DHT22;2007;48.750;9.278;2023-12-29T00:33:36;15.60;56.10
3986;DHT22;2007;48.750;9.278;2023-12-29T00:36:04;15.60;56.00
3986;DHT22;2007;48.750;9.278;2023-12-29T00:38:32;15.60;56.00
3986;DHT22;2007;48.750;9.278;2023-12-29T00:41:00;15.60;56.10
3986;DHT22;2007;48.750;9.278;2023-12-29T00:43:28;15.60;56.00
3986;DHT22;2007;48.750;9.278;2023-12-29T00:45:58;15.60;56.10
3986;DHT22;2007;48.750;9.278;2023-12-29T00:48:26;15.60;56.00
3986;DHT22;2007;48.750;9.278;2023-12-29T00:50:54;15.60;56.00
3986;DHT22;2007;48.750;9.278;2023-12-29T00:53:22;15.50;55.90
3986;DHT22;2007;48.750;9.278;2023-12-29T00:55:50;15.60;56.00
3986;DHT22;2007;48.750;9.278;2023-12-29T00:58:18;15.60;56.00
3986;DHT22;2007;48.750;9.278;2023-12-29T01:00:46;15.60;56.00
3986;DHT22;2007;48.750;9.278;2023-12-29T01:03:15;15.60;56.00
3986;DHT22;2007;48.750;9.278;2023-12-29T01:05:43;15.60;56.00
3986;DHT22;2007;48.750;9.278;2023-12-29T01:08:11;15.60;56.10
3986;DHT22;2007;48.750;9.278;2023-12-29T01:10:39;15.60;56.00
3986;DHT22;2007;48.750;9.278;2023-12-29T01:13:07;15.60;56.00
3986;DHT22;2007;48.750;9.278;2023-12-29T01:15:35;15.60;56.10
3986;DHT22;2007;48.750;9.278;2023-12-29T01:18:04;15.60;56.10
3986;DHT22;2007;48.750;9.278;2023-12-29T01:20:34;15.60;56.10
3986;DHT22;2007;48.750;9.278;2023-12-29T01:23:02;15.60;56.00
3986;DHT22;2007;48.750;9.278;2023-12-29T01:25:30;15.60;56.00
3986;DHT22;2007;48.750;9.278;2023-12-29T01:27:58;15.60;56.00
3986;DHT22;2007;48.750;9.278;2023-12-29T01:30:26;15.60;56.70
3986;DHT22;2007;48.750;9.278;2023-12-29T01:32:54;15.60;56.00
3986;DHT22;2007;48.750;9.278;2023-12-29T01:35:22;15.60;56.00
3986;DHT22;2007;48.750;9.278;2023-12-29T01:37:51;15.60;56.00
3986;DHT22;2007;48.750;9.278;2023-12-29T01:40:19;15.60;56.00
3986;DHT22;2007;48.750;9.278;2023-12-29T01:42:48;15.60;56.00
3986;DHT22;2007;48.750;9.278;2023-12-29T01:45:21;15.60;56.00
3986;DHT22;2007;48.750;9.278;2023-12-29T01:47:50;15.60;56.00
3986;DHT22;2007;48.750;9.278;2023-12-29T01:50:21;15.60;56.10
3986;DHT22;2007;48.750;9.278;2023-12-29T01:52:51;15.60;56.00
3986;DHT22;2007;48.750;9.278;2023-12-29T01:55:20;15.60;56.00
3986;DHT22;2007;48.750;9.278;2023-12-29T01:57:49;15.60;56.00
3986;DHT22;2007;48.750;9.278;2023-12-29T02:00:18;15.60;56.00
3986;DHT22;2007;48.750;9.278;2023-12-29T02:02:47;15.60;56.00
3986;DHT22;2007;48.750;9.278;2023-12-29T02:05:17;15.60;56.00
3986;DHT22;2007;48.750;9.278;2023-12-29T02:07:45;15.60;56.00
3986;DHT22;2007;48.750;9.278;2023-12-29T02:10:14;15.60;56.00
3986;DHT22;2007;48.750;9.278;2023-12-29T02:12:45;15.60;56.00
3986;DHT22;2007;48.750;9.278;2023-12-29T02:15:13;15.60;56.00
3986;DHT22;2007;48.750;9.278;2023-12-29T02:17:45;15.60;56.00
3986;DHT22;2007;48.750;9.278;2023-12-29T02:20:16;15.60;56.00
3986;DHT22;2007;48.750;9.278;2023-12-29T02:22:44;15.60;56.00
3986;DHT22;2007;48.750;9.278;2023-12-29T02:25:13;15.60;56.00
3986;DHT22;2007;48.750;9.278;2023-12-29T02:27:49;15.60;56.00
3986;DHT22;2007;48.750;9.278;2023-12-29T02:30:23;15.60;56.00
3986;DHT22;2007;48.750;9.278;2023-12-29T02:32:55;15.60;56.00
3986;DHT22;2007;48.750;9.278;2023-12-29T02:35:28;15.60;56.00
3986;DHT22;2007;48.750;9.278;2023-12-29T02:37:57;15.60;56.00
3986;DHT22;2007;48.750;9.278;2023-12-29T02:40:28;15.60;56.00
3986;DHT22;2007;48.750;9.278;2023-12-29T02:42:56;15.60;56.00
3986;DHT22;2007;48.750;9.278;2023-12-29T02:45:24;15.60;56.00
3986;DHT22;2007;48.750;9.278;2023-12-29T02:47:52;15.60;56.00
3986;DHT22;2007;48.750;9.278;2023-12-29T02:50:20;15.60;56.00
3986;DHT22;2007;48.750;9.278;2023-12-29T02:52:48;15.60;56.00
3986;DHT22;2007;48.750;9.278;2023-12-29T02:55:16;15.60;56.00
3986;DHT22;2007;48.750;9.278;2023-12-29T02:57:53;15.60;56.00
3986;DHT22;2007;48.750;9.278;2023-12-29T03:00:21;15.60;56.00
3986;DHT22;2007;48.750;9.278;2023-12-29T03:02:49;15.60;56.00
3986;DHT22;2007;48.750;9.278;2023-12-29T03:05:17;15.60;56.00
3986;DHT22;2007;48.750;9.278;2023-12-29T03:07:45;15.60;56.00
3986;DHT22;2007;48.750;9.278;2023-12-29T03:10:13;15.60;56.00
3986;DHT22;2007;48.750;9.278;2023-12-29T03:12:41;15.60;56.00
3986;DHT22;2007;48.750;9.278;2023-12-29T03:15:11;15.60;56.00
3986;DHT22;2007;48.750;9.278;2023-12-29T03:17:39;15.60;56.00
3986;DHT22;2007;48.750;9.278;2023-12-29T03:20:08;15.70;56.00
3986;DHT22;2007;48.750;9.278;2023-12-29T03:22:36;15.70;56.00
3986;DHT22;2007;48.750;9.278;2023-12-29T03:25:05;15.70;56.00
3986;DHT22;2007;48.750;9.278;2023-12-29T03:27:33;15.70;56.00
3986;DHT22;2007;48.750;9.278;2023-12-29T03:30:01;15.70;56.00
3986;DHT22;2007;48.750;9.278;2023-12-29T03:32:30;15.70;56.00
3986;DHT22;2007;48.750;9.278;2023-12-29T03:34:58;15.70;56.00
3986;DHT22;2007;48.750;9.278;2023-12-29T03:37:27;15.70;56.00
3986;DHT22;2007;48.750;9.278;2023-12-29T03:39:55;15.70;56.00
3986;DHT22;2007;48.750;9.278;2023-12-29T03:42:22;15.70;56.00
3986;DHT22;2007;48.750;9.278;2023-12-29T03:44:50;15.60;56.00
3986;DHT22;2007;48.750;9.278;2023-12-29T03:47:18;15.70;56.00
3986;DHT22;2007;48.750;9.278;2023-12-29T03:49:48;15.70;56.10
3986;DHT22;2007;48.750;9.278;2023-12-29T03:52:16;15.70;56.00
3986;DHT22;2007;48.750;9.278;2023-12-29T03:54:44;15.70;56.00
3986;DHT22;2007;48.750;9.278;2023-12-29T03:57:12;15.70;56.00
3986;DHT22;2007;48.750;9.278;2023-12-29T03:59:40;15.70;56.40
3986;DHT22;2007;48.750;9.278;2023-12-29T04:02:08;15.70;56.00
3986;DHT22;2007;48.750;9.278;2023-12-29T04:04:37;15.70;56.00
3986;DHT22;2007;48.750;9.278;2023-12-29T04:07:06;15.70;56.00
3986;DHT22;2007;48.750;9.278;2023-12-29T04:09:34;15.70;56.00
3986;DHT22;2007;48.750;9.278;2023-12-29T04:12:03;15.70;56.00
3986;DHT22;2007;48.750;9.278;2023-12-29T04:14:31;15.70;56.00
3986;DHT22;2007;48.750;9.278;2023-12-29T04:16:59;15.70;56.00
3986;DHT22;2007;48.750;9.278;2023-12-29T04:19:29;15.60;56.00
3986;DHT22;2007;48.750;9.278;2023-12-29T04:21:57;15.70;56.00
3986;DHT22;2007;48.750;9.278;2023-12-29T04:24:27;15.70;56.00
3986;DHT22;2007;48.750;9.278;2023-12-29T04:26:55;15.70;56.00
3986;DHT22;2007;48.750;9.278;2023-12-29T04:29:23;15.70;56.00
3986;DHT22;2007;48.750;9.278;2023-12-29T04:31:51;15.70;56.00
3986;DHT22;2007;48.750;9.278;2023-12-29T04:34:19;15.70;56.00
3986;DHT22;2007;48.750;9.278;2023-12-29T04:36:47;15.70;56.00
3986;DHT22;2007;48.750;9.278;2023-12-29T04:39:15;15.70;56.00
3986;DHT22;2007;48.750;9.278;2023-12-29T04:41:44;15.70;56.00
3986;DHT22;2007;48.750;9.278;2023-12-29T04:44:12;15.70;56.00
3986;DHT22;2007;48.750;9.278;2023-12-29T04:46:40;15.70;56.00
3986;DHT22;2007;48.750;9.278;2023-12-29T04:49:09;15.70;56.00
3986;DHT22;2007;48.750;9.278;2023-12-29T04:51:37;15.70;56.00
3986;DHT22;2007;48.750;9.278;2023-12-29T04:54:06;15.70;56.00
3986;DHT22;2007;48.750;9.278;2023-12-29T04:56:34;15.70;56.00
3986;DHT22;2007;48.750;9.278;2023-12-29T04:59:03;15.70;56.00
3986;DHT22;2007;48.750;9.278;2023-12-29T05:01:31;15.70;56.00
3986;DHT22;2007;48.750;9.278;2023-12-29T05:03:59;15.70;56.00
3986;DHT22;2007;48.750;9.278;2023-12-29T05:06:27;15.70;56.00
3986;DHT22;2007;48.750;9.278;2023-12-29T05:08:55;15.70;56.00
3986;DHT22;2007;48.750;9.278;2023-12-29T05:11:23;15.70;56.00
3986;DHT22;2007;48.750;9.278;2023-12-29T05:13:51;15.70;56.00
3986;DHT22;2007;48.750;9.278;2023-12-29T05:16:21;15.70;56.10
3986;DHT22;2007;48.750;9.278;2023-12-29T05:18:48;15.70;56.00
3986;DHT22;2007;48.750;9.278;2023-12-29T05:21:17;15.70;56.00
3986;DHT22;2007;48.750;9.278;2023-12-29T05:23:45;15.70;56.00
3986;DHT22;2007;48.750;9.278;2023-12-29T05:26:14;15.70;56.00
3986;DHT22;2007;48.750;9.278;2023-12-29T05:28:43;15.70;56.00
3986;DHT22;2007;48.750;9.278;2023-12-29T05:31:11;15.70;56.00
3986;DHT22;2007;48.750;9.278;2023-12-29T05:33:40;15.70;56.00
3986;DHT22;2007;48.750;9.278;2023-12-29T05:36:10;15.70;56.00
3986;DHT22;2007;48.750;9.278;2023-12-29T05:38:38;15.70;56.00
3986;DHT22;2007;48.750;9.278;2023-12-29T05:41:07;15.70;56.00
3986;DHT22;2007;48.750;9.278;2023-12-29T05:43:36;15.70;56.00
3986;DHT22;2007;48.750;9.278;2023-12-29T05:46:09;15.70;56.00
3986;DHT22;2007;48.750;9.278;2023-12-29T05:48:37;15.70;56.00
3986;DHT22;2007;48.750;9.278;2023-12-29T05:51:08;15.70;56.00
3986;DHT22;2007;48.750;9.278;2023-12-29T05:53:37;15.70;56.00
3986;DHT22;2007;48.750;9.278;2023-12-29T05:56:07;15.70;56.00
3986;DHT22;2007;48.750;9.278;2023-12-29T05:58:35;15.70;56.00
3986;DHT22;2007;48.750;9.278;2023-12-29T06:01:03;15.70;56.00
3986;DHT22;2007;48.750;9.278;2023-12-29T06:03:32;15.70;56.00
3986;DHT22;2007;48.750;9.278;2023-12-29T06:06:00;15.70;56.00
3986;DHT22;2007;48.750;9.278;2023-12-29T06:08:29;15.70;56.00
3986;DHT22;2007;48.750;9.278;2023-12-29T06:10:57;15.70;56.00
3986;DHT22;2007;48.750;9.278;2023-12-29T06:13:26;15.70;56.00
3986;DHT22;2007;48.750;9.278;2023-12-29T06:15:54;15.70;56.00
3986;DHT22;2007;48.750;9.278;2023-12-29T06:18:22;15.70;56.00
3986;DHT22;2007;48.750;9.278;2023-12-29T06:20:51;15.70;56.00
3986;DHT22;2007;48.750;9.278;2023-12-29T06:23:19;15.70;56.00
3986;DHT22;2007;48.750;9.278;2023-12-29T06:25:48;15.70;56.00
3986;DHT22;2007;48.750;9.278;2023-12-29T06:28:17;15.70;56.00
3986;DHT22;2007;48.750;9.278;2023-12-29T06:30:45;15.70;56.00
3986;DHT22;2007;48.750;9.278;2023-12-29T06:33:13;15.70;56.00
3986;DHT22;2007;48.750;9.278;2023-12-29T06:35:41;15.70;56.00
3986;DHT22;2007;48.750;9.278;2023-12-29T06:38:09;15.70;56.00
3986;DHT22;2007;48.750;9.278;2023-12-29T06:40:37;15.70;56.00
3986;DHT22;2007;48.750;9.278;2023-12-29T06:43:07;15.70;56.00
3986;DHT22;2007;48.750;9.278;2023-12-29T06:45:35;15.70;56.10
3986;DHT22;2007;48.750;9.278;2023-12-29T06:48:04;15.70;56.00
3986;DHT22;2007;48.750;9.278;2023-12-29T06:50:32;15.70;56.00
3986;DHT22;2007;48.750;9.278;2023-12-29T06:53:02;15.70;56.00
3986;DHT22;2007;48.750;9.278;2023-12-29T06:55:30;15.70;56.00
3986;DHT22;2007;48.750;9.278;2023-12-29T06:57:58;15.70;56.00
3986;DHT22;2007;48.750;9.278;2023-12-29T07:00:28;15.70;56.00
3986;DHT22;2007;48.750;9.278;2023-12-29T07:02:56;15.70;56.10
3986;DHT22;2007;48.750;9.278;2023-12-29T07:05:24;15.70;56.00
3986;DHT22;2007;48.750;9.278;2023-12-29T07:07:52;15.70;56.00
3986;DHT22;2007;48.750;9.278;2023-12-29T07:10:20;15.70;56.00
3986;DHT22;2007;48.750;9.278;2023-12-29T07:12:48;15.70;56.00
3986;DHT22;2007;48.750;9.278;2023-12-29T07:15:17;15.70;56.00
3986;DHT22;2007;48.750;9.278;2023-12-29T07:17:46;15.70;56.00
3986;DHT22;2007;48.750;9.278;2023-12-29T07:20:15;15.70;56.10
3986;DHT22;2007;48.750;9.278;2023-12-29T07:22:43;15.70;56.10
3986;DHT22;2007;48.750;9.278;2023-12-29T07:25:11;15.70;56.00
3986;DHT22;2007;48.750;9.278;2023-12-29T07:27:39;15.70;56.00
3986;DHT22;2007;48.750;9.278;2023-12-29T07:30:09;15.70;56.00
3986;DHT22;2007;48.750;9.278;2023-12-29T07:32:37;15.70;56.00
3986;DHT22;2007;48.750;9.278;2023-12-29T07:35:07;15.70;56.00
3986;DHT22;2007;48.750;9.278;2023-12-29T07:37:35;15.70;56.00
3986;DHT22;2007;48.750;9.278;2023-12-29T07:40:05;15.70;56.10
3986;DHT22;2007;48.750;9.278;2023-12-29T07:42:35;15.70;56.00
3986;DHT22;2007;48.750;9.278;2023-12-29T07:45:03;15.70;56.10
3986;DHT22;2007;48.750;9.278;2023-12-29T07:47:32;15.70;56.00
3986;DHT22;2007;48.750;9.278;2023-12-29T07:50:00;15.70;56.00
3986;DHT22;2007;48.750;9.278;2023-12-29T07:52:30;15.70;56.00
3986;DHT22;2007;48.750;9.278;2023-12-29T07:54:58;15.70;56.00
3986;DHT22;2007;48.750;9.278;2023-12-29T07:57:26;15.70;56.00
3986;DHT22;2007;48.750;9.278;2023-12-29T07:59:54;15.70;56.10
3986;DHT22;2007;48.750;9.278;2023-12-29T08:02:22;15.70;56.00
3986;DHT22;2007;48.750;9.278;2023-12-29T08:04:50;15.70;56.10
3986;DHT22;2007;48.750;9.278;2023-12-29T08:07:18;15.70;56.10
3986;DHT22;2007;48.750;9.278;2023-12-29T08:09:47;15.70;56.00
3986;DHT22;2007;48.750;9.278;2023-12-29T08:12:15;15.70;56.10
3986;DHT22;2007;48.750;9.278;2023-12-29T08:14:43;15.70;56.10
3986;DHT22;2007;48.750;9.278;2023-12-29T08:17:11;15.70;56.10
3986;DHT22;2007;48.750;9.278;2023-12-29T08:19:40;15.70;56.10
3986;DHT22;2007;48.750;9.278;2023-12-29T08:22:08;15.70;56.70
3986;DHT22;2007;48.750;9.278;2023-12-29T08:24:36;15.70;56.10
3986;DHT22;2007;48.750;9.278;2023-12-29T08:27:09;15.70;56.10
3986;DHT22;2007;48.750;9.278;2023-12-29T08:29:37;15.70;56.10
3986;DHT22;2007;48.750;9.278;2023-12-29T08:32:05;15.70;56.10
3986;DHT22;2007;48.750;9.278;2023-12-29T08:34:34;15.70;56.10
3986;DHT22;2007;48.750;9.278;2023-12-29T08:37:04;15.70;56.10
3986;DHT22;2007;48.750;9.278;2023-12-29T08:39:32;15.70;56.10
3986;DHT22;2007;48.750;9.278;2023-12-29T08:42:00;15.70;56.10
3986;DHT22;2007;48.750;9.278;2023-12-29T08:44:29;15.70;56.10
3986;DHT22;2007;48.750;9.278;2023-12-29T08:46:57;15.70;56.10
3986;DHT22;2007;48.750;9.278;2023-12-29T08:49:25;15.70;56.10
3986;DHT22;2007;48.750;9.278;2023-12-29T08:51:53;15.70;56.10
3986;DHT22;2007;48.750;9.278;2023-12-29T08:54:21;15.70;56.10
3986;DHT22;2007;48.750;9.278;2023-12-29T08:56:49;15.70;56.10
3986;DHT22;2007;48.750;9.278;2023-12-29T08:59:17;15.70;56.10
3986;DHT22;2007;48.750;9.278;2023-12-29T09:01:47;15.70;56.10
3986;DHT22;2007;48.750;9.278;2023-12-29T09:04:15;15.70;56.10
3986;DHT22;2007;48.750;9.278;2023-12-29T09:06:43;15.70;56.10
3986;DHT22;2007;48.750;9.278;2023-12-29T09:09:12;15.70;56.10
3986;DHT22;2007;48.750;9.278;2023-12-29T09:11:40;15.70;56.10
3986;DHT22;2007;48.750;9.278;2023-12-29T09:14:09;15.70;56.10
3986;DHT22;2007;48.750;9.278;2023-12-29T09:16:37;15.70;56.10
3986;DHT22;2007;48.750;9.278;2023-12-29T09:19:10;15.70;56.10
3986;DHT22;2007;48.750;9.278;2023-12-29T09:21:56;15.80;56.20
3986;DHT22;2007;48.750;9.278;2023-12-29T09:24:25;15.70;56.10
3986;DHT22;2007;48.750;9.278;2023-12-29T09:26:53;15.70;56.10
3986;DHT22;2007;48.750;9.278;2023-12-29T09:29:21;15.70;56.10
3986;DHT22;2007;48.750;9.278;2023-12-29T09:31:49;15.70;56.10
3986;DHT22;2007;48.750;9.278;2023-12-29T09:34:18;15.70;56.10
3986;DHT22;2007;48.750;9.278;2023-12-29T09:36:46;15.80;56.20
3986;DHT22;2007;48.750;9.278;2023-12-29T09:39:14;15.70;56.10
3986;DHT22;2007;48.750;9.278;2023-12-29T09:41:46;15.70;56.10
3986;DHT22;2007;48.750;9.278;2023-12-29T09:44:15;15.70;56.10
3986;DHT22;2007;48.750;9.278;2023-12-29T09:46:45;15.70;56.10
3986;DHT22;2007;48.750;9.278;2023-12-29T09:49:19;15.70;56.10
3986;DHT22;2007;48.750;9.278;2023-12-29T09:51:48;15.80;56.20
3986;DHT22;2007;48.750;9.278;2023-12-29T09:54:16;15.70;56.10
3986;DHT22;2007;48.750;9.278;2023-12-29T09:56:45;15.80;56.20
3986;DHT22;2007;48.750;9.278;2023-12-29T09:59:13;15.80;56.20
3986;DHT22;2007;48.750;9.278;2023-12-29T10:01:44;15.80;56.20
3986;DHT22;2007;48.750;9.278;2023-12-29T10:04:13;15.80;56.20
3986;DHT22;2007;48.750;9.278;2023-12-29T10:06:44;15.80;56.20
3986;DHT22;2007;48.750;9.278;2023-12-29T10:09:17;15.80;56.20
3986;DHT22;2007;48.750;9.278;2023-12-29T10:11:48;15.80;56.20
3986;DHT22;2007;48.750;9.278;2023-12-29T10:14:21;15.80;56.20
3986;DHT22;2007;48.750;9.278;2023-12-29T10:16:54;15.80;56.20
3986;DHT22;2007;48.750;9.278;2023-12-29T10:19:33;15.80;56.20
3986;DHT22;2007;48.750;9.278;2023-12-29T10:22:11;15.80;56.20
3986;DHT22;2007;48.750;9.278;2023-12-29T10:24:41;15.80;56.20
3986;DHT22;2007;48.750;9.278;2023-12-29T10:27:12;15.80;56.20
3986;DHT22;2007;48.750;9.278;2023-12-29T10:29:41;15.80;56.20
3986;DHT22;2007;48.750;9.278;2023-12-29T10:32:09;15.80;56.20
3986;DHT22;2007;48.750;9.278;2023-12-29T10:34:37;15.80;56.20
3986;DHT22;2007;48.750;9.278;2023-12-29T10:37:07;15.80;56.30
3986;DHT22;2007;48.750;9.278;2023-12-29T10:39:54;15.80;56.20
3986;DHT22;2007;48.750;9.278;2023-12-29T10:42:23;15.80;56.30
3986;DHT22;2007;48.750;9.278;2023-12-29T10:45:04;15.80;56.20
3986;DHT22;2007;48.750;9.278;2023-12-29T10:47:33;15.80;56.30
3986;DHT22;2007;48.750;9.278;2023-12-29T10:50:02;15.80;56.20
3986;DHT22;2007;48.750;9.278;2023-12-29T10:52:32;15.80;56.20
3986;DHT22;2007;48.750;9.278;2023-12-29T10:55:05;15.80;56.20
3986;DHT22;2007;48.750;9.278;2023-12-29T10:57:33;15.80;56.30
3986;DHT22;2007;48.750;9.278;2023-12-29T11:00:02;15.80;56.20
3986;DHT22;2007;48.750;9.278;2023-12-29T11:02:32;15.80;56.30
3986;DHT22;2007;48.750;9.278;2023-12-29T11:05:04;15.80;56.30
3986;DHT22;2007;48.750;9.278;2023-12-29T11:07:38;15.80;56.20
3986;DHT22;2007;48.750;9.278;2023-12-29T11:10:08;15.80;56.20
3986;DHT22;2007;48.750;9.278;2023-12-29T11:12:37;15.80;56.20
3986;DHT22;2007;48.750;9.278;2023-12-29T11:15:06;15.80;56.20
3986;DHT22;2007;48.750;9.278;2023-12-29T11:17:35;15.80;56.20
3986;DHT22;2007;48.750;9.278;2023-12-29T11:20:04;15.80;56.30
3986;DHT22;2007;48.750;9.278;2023-12-29T11:22:33;15.80;56.20
3986;DHT22;2007;48.750;9.278;2023-12-29T11:25:04;15.80;56.90
3986;DHT22;2007;48.750;9.278;2023-12-29T11:27:35;15.80;56.20
3986;DHT22;2007;48.750;9.278;2023-12-29T11:30:04;15.80;56.20
3986;DHT22;2007;48.750;9.278;2023-12-29T11:32:38;15.80;56.20
3986;DHT22;2007;48.750;9.278;2023-12-29T11:35:15;15.80;56.30
3986;DHT22;2007;48.750;9.278;2023-12-29T11:37:58;15.80;56.20
3986;DHT22;2007;48.750;9.278;2023-12-29T11:40:32;15.80;56.20
3986;DHT22;2007;48.750;9.278;2023-12-29T11:43:07;15.80;56.20
3986;DHT22;2007;48.750;9.278;2023-12-29T11:45:36;15.80;56.20
3986;DHT22;2007;48.750;9.278;2023-12-29T11:48:06;15.80;56.30
3986;DHT22;2007;48.750;9.278;2023-12-29T11:50:35;15.80;56.20
3986;DHT22;2007;48.750;9.278;2023-12-29T11:53:04;15.80;56.20
3986;DHT22;2007;48.750;9.278;2023-12-29T11:55:35;15.80;56.20
3986;DHT22;2007;48.750;9.278;2023-12-29T11:58:04;15.80;56.20
3986;DHT22;2007;48.750;9.278;2023-12-29T12:00:46;15.80;56.20
3986;DHT22;2007;48.750;9.278;2023-12-29T12:03:23;15.80;56.20
3986;DHT22;2007;48.750;9.278;2023-12-29T12:05:53;15.80;56.20
3986;DHT22;2007;48.750;9.278;2023-12-29T12:08:28;15.80;56.20
3986;DHT22;2007;48.750;9.278;2023-12-29T12:10:57;15.80;56.20
3986;DHT22;2007;48.750;9.278;2023-12-29T12:13:43;15.80;56.20
3986;DHT22;2007;48.750;9.278;2023-12-29T12:16:49;15.80;56.20
3986;DHT22;2007;48.750;9.278;2023-12-29T12:19:20;15.80;56.30
3986;DHT22;2007;48.750;9.278;2023-12-29T12:21:53;15.80;56.20
3986;DHT22;2007;48.750;9.278;2023-12-29T12:24:21;15.80;56.20
3986;DHT22;2007;48.750;9.278;2023-12-29T12:26:51;15.80;56.20
3986;DHT22;2007;48.750;9.278;2023-12-29T12:29:19;15.80;56.20
3986;DHT22;2007;48.750;9.278;2023-12-29T12:31:57;15.80;56.20
3986;DHT22;2007;48.750;9.278;2023-12-29T12:34:25;15.80;56.20
3986;DHT22;2007;48.750;9.278;2023-12-29T12:36:55;15.80;56.20
3986;DHT22;2007;48.750;9.278;2023-12-29T12:39:38;15.80;56.20
3986;DHT22;2007;48.750;9.278;2023-12-29T12:42:08;15.80;56.20
3986;DHT22;2007;48.750;9.278;2023-12-29T12:44:39;15.80;56.20
3986;DHT22;2007;48.750;9.278;2023-12-29T12:47:10;15.80;56.20
3986;DHT22;2007;48.750;9.278;2023-12-29T12:49:45;15.80;56.20
3986;DHT22;2007;48.750;9.278;2023-12-29T12:52:14;15.80;56.20
3986;DHT22;2007;48.750;9.278;2023-12-29T12:54:42;15.80;56.20
3986;DHT22;2007;48.750;9.278;2023-12-29T12:57:13;15.80;56.20
3986;DHT22;2007;48.750;9.278;2023-12-29T12:59:41;15.80;56.20
3986;DHT22;2007;48.750;9.278;2023-12-29T13:02:09;15.80;56.20
3986;DHT22;2007;48.750;9.278;2023-12-29T13:04:39;15.80;56.20
3986;DHT22;2007;48.750;9.278;2023-12-29T13:07:08;15.80;56.20
3986;DHT22;2007;48.750;9.278;2023-12-29T13:09:37;15.80;56.20
3986;DHT22;2007;48.750;9.278;2023-12-29T13:12:10;15.80;56.20
3986;DHT22;2007;48.750;9.278;2023-12-29T13:14:39;15.80;56.20
3986;DHT22;2007;48.750;9.278;2023-12-29T13:17:08;15.80;56.20
3986;DHT22;2007;48.750;9.278;2023-12-29T13:19:37;15.80;56.20
3986;DHT22;2007;48.750;9.278;2023-12-29T13:22:09;15.80;56.20
3986;DHT22;2007;48.750;9.278;2023-12-29T13:24:42;15.80;56.20
3986;DHT22;2007;48.750;9.278;2023-12-29T13:27:13;15.80;56.20
3986;DHT22;2007;48.750;9.278;2023-12-29T13:29:42;15.80;56.20
3986;DHT22;2007;48.750;9.278;2023-12-29T13:32:15;15.80;56.20
3986;DHT22;2007;48.750;9.278;2023-12-29T13:34:51;15.80;56.20
3986;DHT22;2007;48.750;9.278;2023-12-29T13:37:24;15.80;56.20
3986;DHT22;2007;48.750;9.278;2023-12-29T13:39:57;15.80;56.20
3986;DHT22;2007;48.750;9.278;2023-12-29T13:42:31;15.80;56.20
3986;DHT22;2007;48.750;9.278;2023-12-29T13:45:01;15.80;56.20
3986;DHT22;2007;48.750;9.278;2023-12-29T13:47:31;15.80;56.20
3986;DHT22;2007;48.750;9.278;2023-12-29T13:50:00;15.80;56.20
3986;DHT22;2007;48.750;9.278;2023-12-29T13:52:29;15.90;56.30
3986;DHT22;2007;48.750;9.278;2023-12-29T13:54:57;15.90;56.30
3986;DHT22;2007;48.750;9.278;2023-12-29T13:57:31;15.90;56.30
3986;DHT22;2007;48.750;9.278;2023-12-29T14:00:14;15.80;56.20
3986;DHT22;2007;48.750;9.278;2023-12-29T14:02:44;15.80;56.20
3986;DHT22;2007;48.750;9.278;2023-12-29T14:05:19;15.80;56.20
3986;DHT22;2007;48.750;9.278;2023-12-29T14:07:52;15.90;56.30
3986;DHT22;2007;48.750;9.278;2023-12-29T14:10:20;15.90;56.30
3986;DHT22;2007;48.750;9.278;2023-12-29T14:12:49;15.80;56.20
3986;DHT22;2007;48.750;9.278;2023-12-29T14:15:17;15.90;56.30
3986;DHT22;2007;48.750;9.278;2023-12-29T14:17:46;15.80;56.20
3986;DHT22;2007;48.750;9.278;2023-12-29T14:20:32;15.90;56.30
3986;DHT22;2007;48.750;9.278;2023-12-29T14:23:02;15.90;56.30
3986;DHT22;2007;48.750;9.278;2023-12-29T14:25:32;15.90;56.30
3986;DHT22;2007;48.750;9.278;2023-12-29T14:28:14;15.90;56.30
3986;DHT22;2007;48.750;9.278;2023-12-29T14:30:43;15.90;56.30
3986;DHT22;2007;48.750;9.278;2023-12-29T14:33:11;15.90;56.30
3986;DHT22;2007;48.750;9.278;2023-12-29T14:35:39;15.90;56.30
3986;DHT22;2007;48.750;9.278;2023-12-29T14:38:07;15.90;56.30
3986;DHT22;2007;48.750;9.278;2023-12-29T14:40:35;15.90;56.30
3986;DHT22;2007;48.750;9.278;2023-12-29T14:43:04;15.90;56.30
3986;DHT22;2007;48.750;9.278;2023-12-29T14:45:32;15.90;56.30
3986;DHT22;2007;48.750;9.278;2023-12-29T14:48:00;15.90;56.30
3986;DHT22;2007;48.750;9.278;2023-12-29T14:50:29;15.90;56.20
3986;DHT22;2007;48.750;9.278;2023-12-29T14:52:57;15.90;56.30
3986;DHT22;2007;48.750;9.278;2023-12-29T14:55:25;15.90;56.20
3986;DHT22;2007;48.750;9.278;2023-12-29T14:57:53;15.90;56.30
3986;DHT22;2007;48.750;9.278;2023-12-29T15:00:22;15.90;56.20
3986;DHT22;2007;48.750;9.278;2023-12-29T15:02:50;15.90;56.20
3986;DHT22;2007;48.750;9.278;2023-12-29T15:05:18;15.90;56.30
3986;DHT22;2007;48.750;9.278;2023-12-29T15:07:46;15.90;56.30
3986;DHT22;2007;48.750;9.278;2023-12-29T15:10:14;15.90;56.20
3986;DHT22;2007;48.750;9.278;2023-12-29T15:12:42;15.90;56.20
3986;DHT22;2007;48.750;9.278;2023-12-29T15:15:10;15.90;56.20
3986;DHT22;2007;48.750;9.278;2023-12-29T15:17:39;15.90;56.20
3986;DHT22;2007;48.750;9.278;2023-12-29T15:20:08;15.90;56.30
3986;DHT22;2007;48.750;9.278;2023-12-29T15:22:37;15.90;56.20
3986;DHT22;2007;48.750;9.278;2023-12-29T15:25:06;15.90;56.20
3986;DHT22;2007;48.750;9.278;2023-12-29T15:27:34;15.90;56.20
3986;DHT22;2007;48.750;9.278;2023-12-29T15:30:02;15.90;56.20
3986;DHT22;2007;48.750;9.278;2023-12-29T15:32:30;15.90;56.20
3986;DHT22;2007;48.750;9.278;2023-12-29T15:35:00;15.90;56.20
3986;DHT22;2007;48.750;9.278;2023-12-29T15:37:28;15.90;56.20
3986;DHT22;2007;48.750;9.278;2023-12-29T15:39:56;15.90;56.20
3986;DHT22;2007;48.750;9.278;2023-12-29T15:42:24;15.90;56.20
3986;DHT22;2007;48.750;9.278;2023-12-29T15:44:51;15.90;56.20
3986;DHT22;2007;48.750;9.278;2023-12-29T15:47:19;15.90;56.30
3986;DHT22;2007;48.750;9.278;2023-12-29T15:49:47;15.90;56.20
3986;DHT22;2007;48.750;9.278;2023-12-29T15:52:17;15.90;56.20
3986;DHT22;2007;48.750;9.278;2023-12-29T15:54:45;15.90;56.20
3986;DHT22;2007;48.750;9.278;2023-12-29T15:57:13;15.90;56.20
3986;DHT22;2007;48.750;9.278;2023-12-29T15:59:41;15.90;56.20
3986;DHT22;2007;48.750;9.278;2023-12-29T16:02:11;15.90;56.20
3986;DHT22;2007;48.750;9.278;2023-12-29T16:04:39;15.90;56.20
3986;DHT22;2007;48.750;9.278;2023-12-29T16:07:07;15.90;56.20
3986;DHT22;2007;48.750;9.278;2023-12-29T16:09:36;15.90;56.20
3986;DHT22;2007;48.750;9.278;2023-12-29T16:12:06;15.90;56.20
3986;DHT22;2007;48.750;9.278;2023-12-29T16:14:34;15.90;56.20
3986;DHT22;2007;48.750;9.278;2023-12-29T16:17:04;15.90;56.20